Time;durP1;ratioP1;P1;durP2;ratioP2;P2;SDS_P1;SDS_P2;PMS_P1;PMS_P2;Temp;Humidity;BMP_temperature;BMP_pressure;BME280_temperature;BME280_humidity;BME280_pressure;Samples;Min_cycle;Max_cycle;Signal;HPM_P1;HPM_P2
2021/01/31 00:00:39;;;;;;;2.30;1.30;;;;;;;;;;4977070;28;20037;-75
2021/01/31 00:03:26;;;;;;;2.80;1.30;;;;;;;;;;4994521;28;20028;-75
2021/01/31 00:05:52;;;;;;;2.22;1.30;;;;;;;;;;4973679;28;20042;-75
2021/01/31 00:08:18;;;;;;;3.08;1.45;;;;;;;;;;4977743;28;20363;-75
2021/01/31 00:10:43;;;;;;;2.05;1.20;;;;;;;;;;4993273;28;20037;-75
2021/01/31 00:13:09;;;;;;;3.27;1.37;;;;;;;;;;4993284;28;20026;-75
2021/01/31 00:15:36;;;;;;;3.57;1.50;;;;;;;;;;4973432;28;20045;-75
2021/01/31 00:18:02;;;;;;;3.08;1.40;;;;;;;;;;4960197;28;20121;-75
2021/01/31 00:20:32;;;;;;;2.70;1.40;;;;;;;;;;4992186;28;20501;-75
2021/01/31 00:22:58;;;;;;;2.35;1.25;;;;;;;;;;4974044;28;20482;-75
2021/01/31 00:25:23;;;;;;;2.07;1.20;;;;;;;;;;4973352;28;20121;-75
2021/01/31 00:27:49;;;;;;;2.93;1.37;;;;;;;;;;4973562;28;20497;-75
2021/01/31 00:30:22;;;;;;;2.55;1.45;;;;;;;;;;4973660;28;20034;-76
2021/01/31 00:32:48;;;;;;;3.03;1.50;;;;;;;;;;4989635;28;20540;-75
2021/01/31 00:35:15;;;;;;;2.60;1.43;;;;;;;;;;4981041;28;20031;-75
2021/01/31 00:37:41;;;;;;;2.80;1.30;;;;;;;;;;4973439;28;20050;-75
2021/01/31 00:40:06;;;;;;;2.13;1.20;;;;;;;;;;4974575;28;20062;-75
2021/01/31 00:42:32;;;;;;;1.80;1.30;;;;;;;;;;4985375;28;20049;-75
2021/01/31 00:44:57;;;;;;;1.87;1.10;;;;;;;;;;4988943;28;20062;-74
2021/01/31 00:47:22;;;;;;;2.40;1.40;;;;;;;;;;4973399;28;20091;-75
2021/01/31 00:49:48;;;;;;;2.50;1.43;;;;;;;;;;4973225;28;20106;-75
2021/01/31 00:52:14;;;;;;;2.13;1.30;;;;;;;;;;4940919;28;20050;-75
2021/01/31 00:54:39;;;;;;;2.73;1.50;;;;;;;;;;4966834;28;20030;-75
2021/01/31 00:57:05;;;;;;;2.73;1.33;;;;;;;;;;4976434;28;20050;-75
2021/01/31 00:59:30;;;;;;;2.40;1.30;;;;;;;;;;4992118;28;20026;-75
2021/01/31 01:01:55;;;;;;;4.83;1.60;;;;;;;;;;4977013;28;20034;-75
2021/01/31 01:04:21;;;;;;;2.83;1.50;;;;;;;;;;4996360;28;20512;-74
2021/01/31 01:06:46;;;;;;;1.87;1.20;;;;;;;;;;4993628;28;20442;-74
2021/01/31 01:09:13;;;;;;;2.53;1.33;;;;;;;;;;4972835;28;20109;-74
2021/01/31 01:11:38;;;;;;;;;;;;;;;;;;4957533;28;20018;-74
2021/01/31 01:14:03;;;;;;;2.92;1.48;;;;;;;;;;4957149;28;19942;-74
2021/01/31 01:16:29;;;;;;;3.70;1.50;;;;;;;;;;4957068;28;20386;-75
2021/01/31 01:18:54;;;;;;;2.60;1.40;;;;;;;;;;4974154;28;20057;-74
2021/01/31 01:21:19;;;;;;;2.80;1.50;;;;;;;;;;4973119;28;20027;-74
2021/01/31 01:23:45;;;;;;;2.03;1.20;;;;;;;;;;4961044;28;20100;-74
2021/01/31 01:26:10;;;;;;;2.10;1.20;;;;;;;;;;4959985;28;20109;-75
2021/01/31 01:28:35;;;;;;;2.00;1.20;;;;;;;;;;4992701;28;20529;-75
2021/01/31 01:31:01;;;;;;;2.87;1.43;;;;;;;;;;4993518;28;20509;-74
2021/01/31 01:33:26;;;;;;;2.67;1.67;;;;;;;;;;4958685;28;20477;-74
2021/01/31 01:35:52;;;;;;;2.93;1.40;;;;;;;;;;4956738;28;20112;-75
2021/01/31 01:38:17;;;;;;;2.30;1.40;;;;;;;;;;4940948;28;20027;-75
2021/01/31 01:40:42;;;;;;;3.10;1.43;;;;;;;;;;4973959;28;20509;-75
2021/01/31 01:43:16;;;;;;;2.97;1.57;;;;;;;;;;4943839;28;20052;-74
2021/01/31 01:45:41;;;;;;;2.35;1.50;;;;;;;;;;4995736;28;20022;-74
2021/01/31 01:48:16;;;;;;;2.80;1.40;;;;;;;;;;4979709;28;20061;-75
2021/01/31 01:50:46;;;;;;;2.50;1.35;;;;;;;;;;4995851;28;20026;-75
2021/01/31 01:53:11;;;;;;;3.42;1.58;;;;;;;;;;4976731;28;20142;-74
2021/01/31 01:56:04;;;;;;;2.17;1.27;;;;;;;;;;4960473;28;20516;-75
2021/01/31 01:58:30;;;;;;;2.50;1.60;;;;;;;;;;4961057;28;20482;-74
2021/01/31 02:00:55;;;;;;;2.00;1.40;;;;;;;;;;4960322;28;20097;-74
2021/01/31 02:03:23;;;;;;;2.37;1.30;;;;;;;;;;4980535;28;20057;-74
2021/01/31 02:05:52;;;;;;;2.40;1.42;;;;;;;;;;4979599;28;20150;-75
2021/01/31 02:08:18;;;;;;;2.75;1.40;;;;;;;;;;4979552;28;20026;-74
2021/01/31 02:10:43;;;;;;;2.23;1.43;;;;;;;;;;4979256;28;20122;-74
2021/01/31 02:13:08;;;;;;;2.43;1.53;;;;;;;;;;4993356;28;20033;-74
2021/01/31 02:15:34;;;;;;;2.20;1.30;;;;;;;;;;4960111;28;20058;-75
2021/01/31 02:18:34;;;;;;;3.03;1.60;;;;;;;;;;4959972;28;20047;-75
2021/01/31 02:21:21;;;;;;;2.38;1.27;;;;;;;;;;4981372;28;20073;-74
2021/01/31 02:24:23;;;;;;;2.28;1.40;;;;;;;;;;4987018;28;20035;-74
2021/01/31 02:26:55;;;;;;;2.80;1.42;;;;;;;;;;4977282;28;20098;-74
2021/01/31 02:29:30;;;;;;;3.30;1.77;;;;;;;;;;4977084;28;20393;-74
2021/01/31 02:32:33;;;;;;;2.70;1.35;;;;;;;;;;4984819;28;20023;-74
2021/01/31 02:35:09;;;;;;;2.45;1.52;;;;;;;;;;4996312;28;20493;-74
2021/01/31 02:37:40;;;;;;;3.15;1.60;;;;;;;;;;4979240;28;20036;-74
2021/01/31 02:40:43;;;;;;;2.97;1.60;;;;;;;;;;4963301;28;20096;-75
2021/01/31 02:43:12;;;;;;;3.05;1.40;;;;;;;;;;4954987;29;20079;-74
2021/01/31 02:45:45;;;;;;;2.05;1.38;;;;;;;;;;4968815;28;20039;-75
2021/01/31 02:48:32;;;;;;;2.70;1.58;;;;;;;;;;4977779;28;20027;-74
2021/01/31 02:51:01;;;;;;;2.10;1.38;;;;;;;;;;4975006;28;20046;-74
2021/01/31 02:53:33;;;;;;;3.85;1.40;;;;;;;;;;4978838;28;20492;-74
2021/01/31 02:56:02;;;;;;;2.47;1.38;;;;;;;;;;4974897;28;20037;-74
2021/01/31 02:58:29;;;;;;;1.88;1.35;;;;;;;;;;4943636;28;20038;-74
2021/01/31 03:01:11;;;;;;;2.92;1.60;;;;;;;;;;4948829;28;20026;-74
2021/01/31 03:03:40;;;;;;;2.65;1.55;;;;;;;;;;4975359;28;20031;-75
2021/01/31 03:06:10;;;;;;;2.30;1.60;;;;;;;;;;4975309;28;20457;-74
2021/01/31 03:08:37;;;;;;;2.65;1.65;;;;;;;;;;4959278;28;20397;-74
2021/01/31 03:11:08;;;;;;;2.67;1.48;;;;;;;;;;4975253;28;20434;-74
2021/01/31 03:13:53;;;;;;;3.40;1.60;;;;;;;;;;4978932;28;20034;-74
2021/01/31 03:16:38;;;;;;;2.42;1.48;;;;;;;;;;4985938;28;20049;-74
2021/01/31 03:19:08;;;;;;;2.95;1.50;;;;;;;;;;4959040;28;20034;-74
2021/01/31 03:21:34;;;;;;;2.83;1.60;;;;;;;;;;4978876;28;20547;-74
2021/01/31 03:24:08;;;;;;;1.97;1.47;;;;;;;;;;4978299;28;20061;-75
2021/01/31 03:26:41;;;;;;;3.00;1.55;;;;;;;;;;4994741;28;20026;-75
2021/01/31 03:29:06;;;;;;;2.30;1.52;;;;;;;;;;4977880;28;20053;-74
2021/01/31 03:31:33;;;;;;;2.20;1.43;;;;;;;;;;4986386;28;20113;-74
2021/01/31 03:34:02;;;;;;;2.60;1.58;;;;;;;;;;4958658;28;20154;-75
2021/01/31 03:36:27;;;;;;;2.47;1.52;;;;;;;;;;4958636;28;20030;-74
2021/01/31 03:38:53;;;;;;;2.77;1.70;;;;;;;;;;4958905;28;20498;-75
2021/01/31 03:41:21;;;;;;;2.78;1.50;;;;;;;;;;4959458;28;20027;-74
2021/01/31 03:43:47;;;;;;;2.42;1.48;;;;;;;;;;4974399;28;20125;-74
2021/01/31 03:46:21;;;;;;;3.43;1.77;;;;;;;;;;4958479;28;20058;-74
2021/01/31 03:48:54;;;;;;;2.35;1.45;;;;;;;;;;4975501;28;20034;-75
2021/01/31 03:51:19;;;;;;;2.50;1.67;;;;;;;;;;4958864;28;20041;-75
2021/01/31 03:53:45;;;;;;;2.77;1.47;;;;;;;;;;4958155;28;20022;-74
2021/01/31 03:56:11;;;;;;;3.33;1.70;;;;;;;;;;4958138;28;20560;-74
2021/01/31 03:58:38;;;;;;;3.22;1.95;;;;;;;;;;4958083;28;20118;-74
2021/01/31 04:01:04;;;;;;;2.58;1.50;;;;;;;;;;4961234;28;20037;-74
2021/01/31 04:03:39;;;;;;;3.13;1.70;;;;;;;;;;4977281;28;20030;-74
2021/01/31 04:06:10;;;;;;;3.13;1.67;;;;;;;;;;4975523;28;20469;-74
2021/01/31 04:08:36;;;;;;;2.65;1.70;;;;;;;;;;4957897;28;20034;-74
2021/01/31 04:11:01;;;;;;;3.07;1.80;;;;;;;;;;4960466;28;20074;-74
2021/01/31 04:13:27;;;;;;;2.90;1.57;;;;;;;;;;4993774;28;20034;-75
2021/01/31 04:15:54;;;;;;;2.72;1.52;;;;;;;;;;4974355;28;20117;-74
2021/01/31 04:18:20;;;;;;;3.55;1.70;;;;;;;;;;4957874;28;20026;-74
2021/01/31 04:20:46;;;;;;;2.80;1.60;;;;;;;;;;4975760;28;20065;-74
2021/01/31 04:23:11;;;;;;;3.38;1.88;;;;;;;;;;4993337;28;20109;-75
2021/01/31 04:25:37;;;;;;;2.50;1.70;;;;;;;;;;4993478;28;20501;-74
2021/01/31 04:28:10;;;;;;;3.10;1.60;;;;;;;;;;4966233;28;20085;-74
2021/01/31 04:30:40;;;;;;;3.00;1.70;;;;;;;;;;4975234;28;20474;-74
2021/01/31 04:33:05;;;;;;;2.70;1.50;;;;;;;;;;4962614;28;20031;-74
2021/01/31 04:35:31;;;;;;;2.70;1.80;;;;;;;;;;4989229;28;20026;-74
2021/01/31 04:37:56;;;;;;;3.13;1.80;;;;;;;;;;4975146;28;20490;-74
2021/01/31 04:40:21;;;;;;;2.60;1.67;;;;;;;;;;4957465;28;20474;-74
2021/01/31 04:42:47;;;;;;;2.73;1.83;;;;;;;;;;4974355;28;20026;-74
2021/01/31 04:45:12;;;;;;;3.00;1.70;;;;;;;;;;4992966;28;20109;-75
2021/01/31 04:47:42;;;;;;;3.17;1.67;;;;;;;;;;4972819;28;20383;-74
2021/01/31 04:50:13;;;;;;;2.17;1.58;;;;;;;;;;4957631;28;20031;-74
2021/01/31 04:52:59;;;;;;;3.17;1.90;;;;;;;;;;4973081;28;20030;-74
2021/01/31 04:55:49;;;;;;;2.47;1.75;;;;;;;;;;4973651;28;20501;-75
2021/01/31 04:58:16;;;;;;;2.90;1.80;;;;;;;;;;4974404;28;20045;-75
2021/01/31 05:00:50;;;;;;;2.72;1.63;;;;;;;;;;4959225;28;20038;-74
2021/01/31 05:03:16;;;;;;;3.47;1.70;;;;;;;;;;4957014;28;20027;-74
2021/01/31 05:05:46;;;;;;;3.27;2.00;;;;;;;;;;4973236;28;20027;-74
2021/01/31 05:08:22;;;;;;;3.22;1.80;;;;;;;;;;4956743;28;20033;-74
2021/01/31 05:10:52;;;;;;;2.45;1.75;;;;;;;;;;4941592;28;20461;-74
2021/01/31 05:13:21;;;;;;;4.05;2.00;;;;;;;;;;4941062;28;20027;-75
2021/01/31 05:16:11;;;;;;;2.65;1.80;;;;;;;;;;4973970;28;20552;-74
2021/01/31 05:18:39;;;;;;;3.00;1.70;;;;;;;;;;4974978;28;20034;-75
2021/01/31 05:21:06;;;;;;;2.20;1.50;;;;;;;;;;4960934;28;20039;-74
2021/01/31 05:23:35;;;;;;;3.22;1.75;;;;;;;;;;4961080;28;20023;-74
2021/01/31 05:26:00;;;;;;;3.17;1.80;;;;;;;;;;4961359;28;20049;-74
2021/01/31 05:28:25;;;;;;;2.83;1.83;;;;;;;;;;4976867;28;20482;-74
2021/01/31 05:30:51;;;;;;;3.37;1.63;;;;;;;;;;4976678;28;20525;-74
2021/01/31 05:33:17;;;;;;;2.90;1.70;;;;;;;;;;4960582;28;20023;-75
2021/01/31 05:35:43;;;;;;;;;;;;;;;;;;4978943;28;20030;-74
2021/01/31 05:38:13;;;;;;;3.15;1.85;;;;;;;;;;4996160;28;19979;-75
2021/01/31 05:40:43;;;;;;;3.47;2.05;;;;;;;;;;4963649;28;20026;-74
2021/01/31 05:43:16;;;;;;;2.80;1.73;;;;;;;;;;4980305;28;20031;-75
2021/01/31 05:45:44;;;;;;;3.33;2.00;;;;;;;;;;4977491;28;20035;-74
2021/01/31 05:48:31;;;;;;;3.10;2.00;;;;;;;;;;4976644;28;20027;-75
2021/01/31 05:50:56;;;;;;;2.93;1.83;;;;;;;;;;4980374;28;20034;-74
2021/01/31 05:53:37;;;;;;;2.63;1.60;;;;;;;;;;4995835;28;20330;-75
2021/01/31 05:56:23;;;;;;;3.50;1.90;;;;;;;;;;4991951;28;20023;-74
2021/01/31 05:59:08;;;;;;;3.53;2.00;;;;;;;;;;4977627;28;20026;-75
2021/01/31 06:01:34;;;;;;;3.28;1.80;;;;;;;;;;4973492;28;20448;-74
2021/01/31 06:04:09;;;;;;;2.80;1.83;;;;;;;;;;4979527;28;20038;-74
2021/01/31 06:06:35;;;;;;;3.03;1.75;;;;;;;;;;4975935;28;20022;-74
2021/01/31 06:09:00;;;;;;;2.90;1.97;;;;;;;;;;4976111;28;20097;-74
2021/01/31 06:11:27;;;;;;;2.93;1.83;;;;;;;;;;4943788;28;20066;-75
2021/01/31 06:14:06;;;;;;;3.42;1.98;;;;;;;;;;4960125;28;20023;-75
2021/01/31 06:16:32;;;;;;;2.83;1.83;;;;;;;;;;4960133;28;20570;-74
2021/01/31 06:19:00;;;;;;;3.53;1.88;;;;;;;;;;4959891;28;20383;-74
2021/01/31 06:21:37;;;;;;;3.28;1.77;;;;;;;;;;4972160;28;20101;-74
2021/01/31 06:24:02;;;;;;;3.17;1.95;;;;;;;;;;4996416;28;20022;-75
2021/01/31 06:26:29;;;;;;;3.67;2.10;;;;;;;;;;4975796;28;20061;-74
2021/01/31 06:29:06;;;;;;;3.17;1.83;;;;;;;;;;4960938;28;20117;-74
2021/01/31 06:31:42;;;;;;;3.28;1.73;;;;;;;;;;4985085;28;20543;-74
2021/01/31 06:34:08;;;;;;;2.78;1.90;;;;;;;;;;4975710;28;20486;-75
2021/01/31 06:36:44;;;;;;;3.47;1.92;;;;;;;;;;4959755;28;20031;-75
2021/01/31 06:39:28;;;;;;;3.63;2.28;;;;;;;;;;4980735;28;20036;-75
2021/01/31 06:42:22;;;;;;;3.80;2.10;;;;;;;;;;4996114;28;20070;-75
2021/01/31 06:45:16;;;;;;;2.65;1.77;;;;;;;;;;4967989;28;20037;-75
2021/01/31 06:47:51;;;;;;;3.00;1.90;;;;;;;;;;4972217;28;20039;-75
2021/01/31 06:50:39;;;;;;;4.15;2.10;;;;;;;;;;4976425;28;20018;-75
2021/01/31 06:53:15;;;;;;;3.95;2.03;;;;;;;;;;4974953;28;20030;-75
2021/01/31 06:55:59;;;;;;;3.22;1.98;;;;;;;;;;4986283;28;20042;-75
2021/01/31 06:58:49;;;;;;;2.83;1.85;;;;;;;;;;4977514;28;20053;-75
2021/01/31 07:01:33;;;;;;;4.45;2.10;;;;;;;;;;4960597;28;20033;-75
2021/01/31 07:04:14;;;;;;;3.65;2.10;;;;;;;;;;4976306;28;20107;-75
2021/01/31 07:07:07;;;;;;;3.60;2.13;;;;;;;;;;4992055;28;20030;-75
2021/01/31 07:09:50;;;;;;;3.30;2.00;;;;;;;;;;4995807;28;20543;-75
2021/01/31 07:13:02;;;;;;;2.92;1.77;;;;;;;;;;4978871;28;20065;-75
2021/01/31 07:15:32;;;;;;;3.60;2.13;;;;;;;;;;4970443;28;20085;-75
2021/01/31 07:18:00;;;;;;;3.85;2.42;;;;;;;;;;4974832;28;20026;-75
2021/01/31 07:20:26;;;;;;;4.05;2.38;;;;;;;;;;4974737;28;20095;-75
2021/01/31 07:22:55;;;;;;;4.32;1.98;;;;;;;;;;4975012;28;20360;-75
2021/01/31 07:25:23;;;;;;;3.50;2.10;;;;;;;;;;4990356;28;20030;-75
2021/01/31 07:28:13;;;;;;;4.13;2.33;;;;;;;;;;4974559;28;20026;-75
2021/01/31 07:30:41;;;;;;;3.13;1.90;;;;;;;;;;4975942;28;20445;-75
2021/01/31 07:33:43;;;;;;;3.50;2.08;;;;;;;;;;4975205;28;20066;-74
2021/01/31 07:36:12;;;;;;;4.38;2.30;;;;;;;;;;4972723;28;20034;-75
2021/01/31 07:38:44;;;;;;;3.38;2.00;;;;;;;;;;4990199;28;20115;-75
2021/01/31 07:41:10;;;;;;;4.03;2.10;;;;;;;;;;4973575;28;20471;-75
2021/01/31 07:43:36;;;;;;;3.90;2.20;;;;;;;;;;4941969;28;20069;-75
2021/01/31 07:46:07;;;;;;;3.25;1.98;;;;;;;;;;4957908;28;20034;-74
2021/01/31 07:48:32;;;;;;;4.00;2.28;;;;;;;;;;4980259;28;20091;-74
2021/01/31 07:50:58;;;;;;;3.40;2.10;;;;;;;;;;4990133;28;20054;-75
2021/01/31 07:53:34;;;;;;;3.88;2.20;;;;;;;;;;4974903;28;20470;-74
2021/01/31 07:56:27;;;;;;;3.92;2.13;;;;;;;;;;4958013;28;20035;-75
2021/01/31 07:58:53;;;;;;;4.43;2.28;;;;;;;;;;4974018;28;20038;-75
2021/01/31 08:01:37;;;;;;;3.75;2.22;;;;;;;;;;4974431;28;20105;-74
2021/01/31 08:04:14;;;;;;;4.40;2.40;;;;;;;;;;4975155;28;20109;-75
2021/01/31 08:06:40;;;;;;;3.70;2.38;;;;;;;;;;4975434;28;20393;-74
2021/01/31 08:09:05;;;;;;;4.43;2.43;;;;;;;;;;4975037;28;20034;-74
2021/01/31 08:11:36;;;;;;;3.73;2.20;;;;;;;;;;4974177;28;20097;-74
2021/01/31 08:14:02;;;;;;;4.53;2.38;;;;;;;;;;4988156;23;20050;-76
2021/01/31 08:16:47;;;;;;;3.90;2.43;;;;;;;;;;4957766;28;20109;-75
2021/01/31 08:19:18;;;;;;;4.57;2.70;;;;;;;;;;4974886;28;20027;-75
2021/01/31 08:22:04;;;;;;;5.35;2.88;;;;;;;;;;4964864;28;20030;-75
2021/01/31 08:25:06;;;;;;;5.50;2.80;;;;;;;;;;4954407;28;20569;-75
2021/01/31 08:27:37;;;;;;;4.40;2.55;;;;;;;;;;4955255;28;20031;-76
2021/01/31 08:30:31;;;;;;;5.63;2.95;;;;;;;;;;4955194;28;20031;-77
2021/01/31 08:33:03;;;;;;;5.78;3.05;;;;;;;;;;4946323;29;20495;-76
2021/01/31 08:35:41;;;;;;;7.53;2.92;;;;;;;;;;4953448;29;20081;-76
2021/01/31 08:38:28;;;;;;;9.35;3.10;;;;;;;;;;4955080;28;20118;-75
2021/01/31 08:40:59;;;;;;;6.50;2.92;;;;;;;;;;4954423;28;20034;-76
2021/01/31 08:43:41;;;;;;;9.82;2.97;;;;;;;;;;4953238;29;20493;-75
2021/01/31 08:46:11;;;;;;;6.63;2.70;;;;;;;;;;4937795;29;20031;-75
2021/01/31 08:48:37;;;;;;;8.05;2.97;;;;;;;;;;4953989;29;20402;-75
2021/01/31 08:51:25;;;;;;;4.90;2.63;;;;;;;;;;4937957;29;20113;-75
2021/01/31 08:54:15;;;;;;;5.00;2.75;;;;;;;;;;4955430;28;20034;-75
2021/01/31 08:56:50;;;;;;;5.50;2.78;;;;;;;;;;4953833;29;20035;-75
2021/01/31 08:59:20;;;;;;;6.45;3.00;;;;;;;;;;4938065;29;20130;-76
2021/01/31 09:01:57;;;;;;;5.60;2.63;;;;;;;;;;4953720;28;20482;-75
2021/01/31 09:04:24;;;;;;;6.03;2.65;;;;;;;;;;4938244;29;20142;-75
2021/01/31 09:06:50;;;;;;;;;;;;;;;;;;4922662;29;20028;-76
2021/01/31 09:09:22;;;;;;;4.80;2.47;;;;;;;;;;4937278;29;20044;-75
2021/01/31 09:11:51;;;;;;;6.18;3.10;;;;;;;;;;4954021;29;20306;-75
2021/01/31 09:14:23;;;;;;;6.20;2.78;;;;;;;;;;4937568;29;20034;-75
2021/01/31 09:16:48;;;;;;;4.35;2.70;;;;;;;;;;4937756;29;20019;-75
2021/01/31 09:19:24;;;;;;;4.80;2.87;;;;;;;;;;4953615;29;20394;-76
2021/01/31 09:21:50;;;;;;;5.82;2.92;;;;;;;;;;4938571;29;20027;-76
2021/01/31 09:24:17;;;;;;;5.28;2.60;;;;;;;;;;4921694;29;20055;-76
2021/01/31 09:26:49;;;;;;;;;;;;;;;;;;4922233;29;20034;-76
2021/01/31 09:29:14;;;;;;;4.90;2.60;;;;;;;;;;4953341;28;19942;-76
2021/01/31 09:31:40;;;;;;;4.50;2.70;;;;;;;;;;4937244;29;20114;-76
2021/01/31 09:34:05;;;;;;;5.40;3.03;;;;;;;;;;4937526;29;20039;-76
2021/01/31 09:36:32;;;;;;;4.70;2.90;;;;;;;;;;4937296;29;20054;-76
2021/01/31 09:38:59;;;;;;;5.07;2.78;;;;;;;;;;4937738;29;20431;-76
2021/01/31 09:41:25;;;;;;;5.13;2.88;;;;;;;;;;4937358;28;20023;-77
2021/01/31 09:43:52;;;;;;;5.93;2.90;;;;;;;;;;4937410;29;20078;-76
2021/01/31 09:46:17;;;;;;;4.43;2.80;;;;;;;;;;4953147;29;20569;-76
2021/01/31 09:48:42;;;;;;;5.37;2.83;;;;;;;;;;4953356;29;20027;-76
2021/01/31 09:51:24;;;;;;;5.50;3.03;;;;;;;;;;4953435;29;20035;-76
2021/01/31 09:53:49;;;;;;;4.55;2.88;;;;;;;;;;4937094;29;20037;-76
2021/01/31 09:56:39;;;;;;;5.43;2.90;;;;;;;;;;4937253;29;20205;-76
2021/01/31 09:59:23;;;;;;;5.30;2.90;;;;;;;;;;4941010;29;20031;-76
2021/01/31 10:01:49;;;;;;;4.78;2.88;;;;;;;;;;4938176;29;20023;-76
2021/01/31 10:04:22;;;;;;;5.22;2.85;;;;;;;;;;4937176;29;20035;-76
2021/01/31 10:06:48;;;;;;;4.95;3.05;;;;;;;;;;4956502;29;20454;-76
2021/01/31 10:09:13;;;;;;;5.17;3.03;;;;;;;;;;4924872;29;20062;-76
2021/01/31 10:11:44;;;;;;;5.03;2.80;;;;;;;;;;4940417;29;20027;-76
2021/01/31 10:14:45;;;;;;;5.28;3.08;;;;;;;;;;4956695;28;20064;-76
2021/01/31 10:17:29;;;;;;;5.32;3.05;;;;;;;;;;4967940;28;20035;-76
2021/01/31 10:20:28;;;;;;;5.63;2.85;;;;;;;;;;4970904;28;20031;-76
2021/01/31 10:23:09;;;;;;;5.05;3.00;;;;;;;;;;4970045;28;20031;-76
2021/01/31 10:25:40;;;;;;;6.22;3.05;;;;;;;;;;4936709;29;20019;-76
2021/01/31 10:28:06;;;;;;;5.10;3.20;;;;;;;;;;4953014;29;20524;-76
2021/01/31 10:30:45;;;;;;;6.47;3.17;;;;;;;;;;4938674;29;20039;-76
2021/01/31 10:33:35;;;;;;;5.00;3.03;;;;;;;;;;4953336;29;20023;-76
2021/01/31 10:36:19;;;;;;;5.88;3.28;;;;;;;;;;4970717;28;20039;-76
2021/01/31 10:38:45;;;;;;;4.97;2.90;;;;;;;;;;4952706;29;20026;-76
2021/01/31 10:41:11;;;;;;;5.40;2.97;;;;;;;;;;4938731;29;20027;-76
2021/01/31 10:43:36;;;;;;;5.55;3.22;;;;;;;;;;4954810;28;20031;-76
2021/01/31 10:46:01;;;;;;;6.27;3.27;;;;;;;;;;4938951;29;20089;-76
2021/01/31 10:48:27;;;;;;;4.97;2.70;;;;;;;;;;4940273;29;20023;-76
2021/01/31 10:50:52;;;;;;;5.73;2.90;;;;;;;;;;4939883;28;20066;-76
2021/01/31 10:53:17;;;;;;;6.87;2.90;;;;;;;;;;4939654;29;20495;-76
2021/01/31 10:55:43;;;;;;;5.37;3.17;;;;;;;;;;4939962;29;20491;-77
2021/01/31 10:58:08;;;;;;;8.53;3.00;;;;;;;;;;4924320;29;20031;-76
2021/01/31 11:00:34;;;;;;;5.07;2.77;;;;;;;;;;4940860;28;20027;-76
2021/01/31 11:02:59;;;;;;;5.20;3.03;;;;;;;;;;4924031;29;20050;-76
2021/01/31 11:05:24;;;;;;;5.40;2.80;;;;;;;;;;4955663;29;20035;-76
2021/01/31 11:07:50;;;;;;;5.50;3.20;;;;;;;;;;4939570;29;20509;-76
2021/01/31 11:10:16;;;;;;;5.63;3.07;;;;;;;;;;4955543;29;20125;-76
2021/01/31 11:12:41;;;;;;;5.45;3.28;;;;;;;;;;4939588;29;20026;-76
2021/01/31 11:15:07;;;;;;;5.30;2.90;;;;;;;;;;4923034;29;20043;-76
2021/01/31 11:17:32;;;;;;;6.15;3.40;;;;;;;;;;4939583;29;20032;-76
2021/01/31 11:19:58;;;;;;;4.73;2.77;;;;;;;;;;4955561;29;20063;-76
2021/01/31 11:22:23;;;;;;;5.53;3.30;;;;;;;;;;4955400;29;20054;-76
2021/01/31 11:24:49;;;;;;;6.40;3.30;;;;;;;;;;4955066;28;20058;-76
2021/01/31 11:27:14;;;;;;;5.17;2.97;;;;;;;;;;4923668;29;20131;-76
2021/01/31 11:29:40;;;;;;;7.83;3.50;;;;;;;;;;4939137;29;20096;-76
2021/01/31 11:32:05;;;;;;;5.07;2.77;;;;;;;;;;4955026;28;20058;-75
2021/01/31 11:34:30;;;;;;;6.10;3.10;;;;;;;;;;4954922;28;20488;-76
2021/01/31 11:36:56;;;;;;;6.23;2.80;;;;;;;;;;4939147;29;20070;-76
2021/01/31 11:39:21;;;;;;;7.53;3.30;;;;;;;;;;4939090;29;20030;-76
2021/01/31 11:41:46;;;;;;;5.93;3.20;;;;;;;;;;4938973;29;20033;-76
2021/01/31 11:44:12;;;;;;;5.70;2.90;;;;;;;;;;4938857;29;20027;-76
2021/01/31 11:46:37;;;;;;;8.47;3.20;;;;;;;;;;4938747;29;20031;-76
2021/01/31 11:49:02;;;;;;;7.90;3.30;;;;;;;;;;4938953;29;20505;-76
2021/01/31 11:51:28;;;;;;;6.03;3.20;;;;;;;;;;4939026;28;20035;-76
2021/01/31 11:53:53;;;;;;;7.87;3.10;;;;;;;;;;4938720;28;20042;-76
2021/01/31 11:56:19;;;;;;;6.23;3.07;;;;;;;;;;4954609;28;20062;-76
2021/01/31 11:58:44;;;;;;;7.37;3.37;;;;;;;;;;4954438;29;20055;-76
2021/01/31 12:01:13;;;;;;;6.90;3.40;;;;;;;;;;4938996;29;20070;-76
2021/01/31 12:03:38;;;;;;;7.43;3.60;;;;;;;;;;4954804;28;20023;-76
2021/01/31 12:06:04;;;;;;;8.77;3.90;;;;;;;;;;4922627;29;20067;-76
2021/01/31 12:08:29;;;;;;;7.23;3.30;;;;;;;;;;4954751;29;20030;-76
2021/01/31 12:10:54;;;;;;;5.93;3.33;;;;;;;;;;4954639;29;20106;-76
2021/01/31 12:13:20;;;;;;;6.27;3.40;;;;;;;;;;4953973;29;20046;-75
2021/01/31 12:15:45;;;;;;;7.40;3.43;;;;;;;;;;4953436;29;20529;-75
2021/01/31 12:18:10;;;;;;;5.37;3.20;;;;;;;;;;4954436;28;20463;-76
2021/01/31 12:20:36;;;;;;;8.67;3.60;;;;;;;;;;4954154;28;20445;-76
2021/01/31 12:23:01;;;;;;;6.93;3.40;;;;;;;;;;4938444;29;20035;-76
2021/01/31 12:25:26;;;;;;;6.07;3.20;;;;;;;;;;4954229;28;20066;-76
2021/01/31 12:27:52;;;;;;;6.57;3.07;;;;;;;;;;4937569;29;20065;-76
2021/01/31 12:30:20;;;;;;;7.23;3.67;;;;;;;;;;4938145;29;20122;-76
2021/01/31 12:32:45;;;;;;;6.97;3.35;;;;;;;;;;4938116;29;20110;-76
2021/01/31 12:35:10;;;;;;;6.50;3.53;;;;;;;;;;4954388;29;20139;-76
2021/01/31 12:37:36;;;;;;;7.07;3.40;;;;;;;;;;4938460;29;20495;-76
2021/01/31 12:40:03;;;;;;;6.50;3.60;;;;;;;;;;4938094;29;20150;-76
2021/01/31 12:42:28;;;;;;;7.45;3.22;;;;;;;;;;4938030;29;20118;-76
2021/01/31 12:44:53;;;;;;;7.37;3.47;;;;;;;;;;4953910;29;20162;-75
2021/01/31 12:47:19;;;;;;;6.77;3.30;;;;;;;;;;4953782;28;20055;-76
2021/01/31 12:49:44;;;;;;;6.10;3.27;;;;;;;;;;4937954;29;20063;-75
2021/01/31 12:52:10;;;;;;;8.32;3.63;;;;;;;;;;4922147;29;20030;-76
2021/01/31 12:54:35;;;;;;;6.53;3.53;;;;;;;;;;4953577;29;20070;-76
2021/01/31 12:57:00;;;;;;;6.83;3.63;;;;;;;;;;4937775;29;20031;-75
2021/01/31 12:59:26;;;;;;;6.43;3.40;;;;;;;;;;4954955;28;20545;-74
2021/01/31 13:01:51;;;;;;;7.10;3.73;;;;;;;;;;4953733;28;20055;-75
2021/01/31 13:04:16;;;;;;;9.13;3.93;;;;;;;;;;4953816;29;20078;-75
2021/01/31 13:06:42;;;;;;;7.27;3.60;;;;;;;;;;4921916;29;20051;-75
2021/01/31 13:09:07;;;;;;;6.67;3.50;;;;;;;;;;4937431;29;20062;-74
2021/01/31 13:11:32;;;;;;;6.90;3.53;;;;;;;;;;4953767;28;20074;-74
2021/01/31 13:13:58;;;;;;;5.90;3.37;;;;;;;;;;4953354;28;20423;-75
2021/01/31 13:16:23;;;;;;;7.43;3.63;;;;;;;;;;4953230;29;20427;-75
2021/01/31 13:18:49;;;;;;;7.10;3.47;;;;;;;;;;4937573;29;20078;-74
2021/01/31 13:21:14;;;;;;;6.83;3.83;;;;;;;;;;4953538;29;20042;-74
2021/01/31 13:23:40;;;;;;;6.38;3.47;;;;;;;;;;4953722;29;20074;-75
2021/01/31 13:26:05;;;;;;;7.33;3.20;;;;;;;;;;4953467;29;20073;-74
2021/01/31 13:28:30;;;;;;;7.00;3.90;;;;;;;;;;4953654;29;20047;-75
2021/01/31 13:30:56;;;;;;;7.97;3.67;;;;;;;;;;4937241;29;20542;-75
2021/01/31 13:33:21;;;;;;;7.83;4.00;;;;;;;;;;4937688;29;20102;-75
2021/01/31 13:35:46;;;;;;;7.80;3.63;;;;;;;;;;4921352;29;20130;-75
2021/01/31 13:38:12;;;;;;;9.37;3.87;;;;;;;;;;4937296;29;20110;-75
2021/01/31 13:40:38;;;;;;;6.53;3.50;;;;;;;;;;4956613;28;20054;-75
2021/01/31 13:43:03;;;;;;;8.13;3.83;;;;;;;;;;4941022;29;20110;-75
2021/01/31 13:45:28;;;;;;;6.60;3.70;;;;;;;;;;4925504;29;20046;-75
2021/01/31 13:47:54;;;;;;;7.43;3.93;;;;;;;;;;4940839;29;20055;-75
2021/01/31 13:50:21;;;;;;;7.53;3.93;;;;;;;;;;4957065;29;20126;-75
2021/01/31 13:52:46;;;;;;;6.70;3.63;;;;;;;;;;4956648;28;20043;-74
2021/01/31 13:55:13;;;;;;;8.30;3.67;;;;;;;;;;4957383;29;20071;-74
2021/01/31 13:57:38;;;;;;;;;;;;;;;;;;4957817;28;20398;-74
2021/01/31 14:00:05;;;;;;;7.72;3.63;;;;;;;;;;4957047;28;19910;-74
2021/01/31 14:02:31;;;;;;;7.63;3.95;;;;;;;;;;4956851;28;20026;-74
2021/01/31 14:04:56;;;;;;;7.57;4.00;;;;;;;;;;4956988;28;20058;-74
2021/01/31 14:07:21;;;;;;;8.10;4.07;;;;;;;;;;4957272;29;20058;-74
2021/01/31 14:09:47;;;;;;;6.87;3.63;;;;;;;;;;4957068;29;20064;-74
2021/01/31 14:12:12;;;;;;;7.77;3.97;;;;;;;;;;4940784;29;20058;-74
2021/01/31 14:17:05;;;;;;;7.35;3.78;;;;;;;;;;4975114;28;19922;-74
2021/01/31 14:19:30;;;;;;;7.23;3.60;;;;;;;;;;4960040;28;20030;-74
2021/01/31 14:21:56;;;;;;;9.00;4.33;;;;;;;;;;4959890;28;20438;-74
2021/01/31 14:24:21;;;;;;;7.57;3.80;;;;;;;;;;4976072;28;20073;-74
2021/01/31 14:26:46;;;;;;;7.03;3.90;;;;;;;;;;4976135;28;20038;-74
2021/01/31 14:29:12;;;;;;;7.23;4.10;;;;;;;;;;4975922;28;20054;-74
2021/01/31 14:31:38;;;;;;;7.93;4.17;;;;;;;;;;4975888;28;20058;-74
2021/01/31 14:34:03;;;;;;;8.90;4.07;;;;;;;;;;4975790;28;20057;-74
2021/01/31 14:36:28;;;;;;;8.40;3.97;;;;;;;;;;4959687;28;20110;-74
2021/01/31 14:38:54;;;;;;;7.70;3.60;;;;;;;;;;4975901;28;20158;-74
2021/01/31 14:41:21;;;;;;;7.40;3.97;;;;;;;;;;4959718;28;20069;-74
2021/01/31 14:43:46;;;;;;;;;;;;;;;;;;4960083;28;20035;-74
2021/01/31 14:46:11;;;;;;;6.90;3.73;;;;;;;;;;4976697;28;20327;-75
2021/01/31 14:48:37;;;;;;;8.03;4.13;;;;;;;;;;4976754;28;20734;-74
2021/01/31 14:51:03;;;;;;;7.60;3.73;;;;;;;;;;4974899;28;20034;-74
2021/01/31 14:53:28;;;;;;;6.90;3.90;;;;;;;;;;4975450;28;20019;-74
2021/01/31 14:55:53;;;;;;;6.87;3.90;;;;;;;;;;4975587;28;20030;-74
2021/01/31 14:58:18;;;;;;;7.53;4.10;;;;;;;;;;4975420;28;20041;-74
2021/01/31 15:00:44;;;;;;;7.60;3.90;;;;;;;;;;4976579;28;20050;-74
2021/01/31 15:03:12;;;;;;;9.03;3.83;;;;;;;;;;4976431;28;20121;-74
2021/01/31 15:05:43;;;;;;;7.18;3.85;;;;;;;;;;4959698;28;20023;-74